Time;durP1;ratioP1;P1;durP2;ratioP2;P2;SDS_P1;SDS_P2;PMS_P1;PMS_P2;Temp;Humidity;BMP_temperature;BMP_pressure;BME280_temperature;BME280_humidity;BME280_pressure;Samples;Min_cycle;Max_cycle;Signal;HPM_P1;HPM_P2
2022/11/13 00:01:20;;;;;;;42.30;30.30;;;;;;;6.60;99.94;101091.45;419604;1283;141600;-66
2022/11/13 00:11:24;;;;;;;;;;;;;;;6.57;99.92;101089.23;421905;1275;143011;-66
2022/11/13 00:21:30;;;;;;;42.30;30.20;;;;;;;6.54;99.97;101084.63;421068;1278;131052;-66
2022/11/13 00:31:36;;;;;;;39.00;28.10;;;;;;;6.50;100.00;101084.36;420010;1283;142555;-66
2022/11/13 00:41:41;;;;;;;42.40;28.60;;;;;;;6.47;100.00;101077.64;424591;1278;143162;-65
2022/11/13 00:51:47;;;;;;;36.70;26.60;;;;;;;6.43;100.00;101063.98;419935;1275;143698;-65
2022/11/13 01:01:53;;;;;;;40.90;27.60;;;;;;;6.39;100.00;101054.87;419782;1277;142930;-66
2022/11/13 01:11:59;;;;;;;35.20;24.40;;;;;;;6.35;100.00;101046.80;420129;1278;143064;-67
2022/11/13 01:22:05;;;;;;;31.60;23.20;;;;;;;6.26;100.00;101035.52;422046;1278;142798;-66
2022/11/13 01:32:10;;;;;;;35.60;24.20;;;;;;;6.23;100.00;101028.79;420036;1278;145176;-65
2022/11/13 01:42:16;;;;;;;38.70;24.60;;;;;;;6.20;100.00;101026.94;420620;1284;145770;-66
2022/11/13 01:52:26;;;;;;;34.90;23.60;;;;;;;6.19;100.00;101031.48;420651;1277;143612;-66
2022/11/13 02:02:32;;;;;;;37.10;24.40;;;;;;;6.12;100.00;101026.95;422260;1278;144176;-64
2022/11/13 02:12:43;;;;;;;41.10;25.50;;;;;;;6.06;100.00;101013.52;421081;1278;142834;-66
2022/11/13 02:22:57;;;;;;;35.70;24.00;;;;;;;6.02;100.00;101005.27;423370;1278;142680;-67
2022/11/13 02:33:16;;;;;;;37.50;23.20;;;;;;;5.99;100.00;101005.99;420792;1277;145260;-65
2022/11/13 02:43:22;;;;;;;39.10;22.70;;;;;;;5.96;100.00;101003.96;419302;1277;142261;-66
2022/11/13 02:53:28;;;;;;;39.10;24.60;;;;;;;5.95;100.00;101007.30;420159;1281;187828;-67
2022/11/13 03:03:34;;;;;;;32.10;21.50;;;;;;;5.95;100.00;101010.79;420719;1280;198641;-66
2022/11/13 03:13:59;;;;;;;33.10;21.90;;;;;;;5.96;100.00;101015.45;420675;1277;142187;-66
2022/11/13 03:24:05;;;;;;;38.10;23.30;;;;;;;5.94;100.00;101020.36;423762;1278;142730;-67
2022/11/13 03:34:11;;;;;;;36.90;26.20;;;;;;;5.92;100.00;101017.97;421651;1282;142850;-65
2022/11/13 03:44:17;;;;;;;39.30;25.80;;;;;;;5.92;100.00;101016.41;419824;1280;144612;-68
2022/11/13 03:54:22;;;;;;;37.40;26.00;;;;;;;5.95;100.00;101007.48;420632;1277;144089;-66
2022/11/13 04:04:28;;;;;;;35.20;23.80;;;;;;;5.95;100.00;101002.80;420376;1281;143595;-66
2022/11/13 04:14:33;;;;;;;32.00;23.50;;;;;;;5.91;100.00;100994.70;420554;1281;142762;-66
2022/11/13 04:24:39;;;;;;;36.50;24.10;;;;;;;5.96;100.00;100996.69;427978;1281;143164;-66
2022/11/13 04:34:45;;;;;;;36.20;24.00;;;;;;;5.97;100.00;100993.52;420541;1277;143013;-66
2022/11/13 04:44:50;;;;;;;36.40;21.70;;;;;;;5.98;100.00;100990.73;419503;1284;143697;-67
2022/11/13 04:54:56;;;;;;;36.70;21.10;;;;;;;5.95;100.00;100988.69;419919;1278;143098;-66
2022/11/13 05:05:02;;;;;;;35.20;22.20;;;;;;;5.95;100.00;100985.23;420514;1282;143839;-66
2022/11/13 05:15:10;;;;;;;30.70;21.50;;;;;;;5.98;100.00;100980.63;420168;1283;142436;-66
2022/11/13 05:25:16;;;;;;;40.00;23.20;;;;;;;6.00;100.00;100978.68;419004;1278;142662;-64
2022/11/13 05:35:22;;;;;;;35.00;22.30;;;;;;;5.98;100.00;100975.09;421151;1284;144066;-66
2022/11/13 05:45:28;;;;;;;33.00;23.50;;;;;;;5.98;100.00;100989.52;420209;1285;142837;-68
2022/11/13 05:55:33;;;;;;;43.30;28.80;;;;;;;5.99;100.00;100997.65;422579;1284;142635;-66
2022/11/13 06:05:39;;;;;;;35.10;22.00;;;;;;;6.00;100.00;100999.72;419042;1283;142402;-65
2022/11/13 06:15:44;;;;;;;39.60;24.90;;;;;;;6.00;100.00;100999.73;422565;1285;143887;-65
2022/11/13 06:25:50;;;;;;;37.10;24.30;;;;;;;5.95;100.00;101003.30;419918;1285;142080;-70
2022/11/13 06:35:56;;;;;;;33.30;20.70;;;;;;;5.91;100.00;101008.61;419216;1284;142995;-65
2022/11/13 06:46:05;;;;;;;35.80;20.60;;;;;;;5.91;100.00;101003.56;420358;1277;142835;-61
2022/11/13 06:56:16;;;;;;;32.70;23.20;;;;;;;5.92;100.00;101007.36;421737;1281;153615;-61
2022/11/13 07:06:24;;;;;;;38.10;24.20;;;;;;;5.95;100.00;101005.42;419900;1281;143335;-61
2022/11/13 07:16:29;;;;;;;30.30;19.70;;;;;;;5.95;100.00;101008.17;420978;1278;142796;-61
2022/11/13 07:26:54;;;;;;;30.10;19.00;;;;;;;5.91;100.00;101009.66;422216;1282;147755;-61
2022/11/13 07:37:00;;;;;;;23.90;16.30;;;;;;;5.84;100.00;101015.02;419679;1280;142947;-61
2022/11/13 07:47:05;;;;;;;26.30;15.10;;;;;;;5.75;100.00;101022.84;419695;1281;144139;-61
2022/11/13 07:57:11;;;;;;;28.70;16.90;;;;;;;5.80;100.00;101025.34;422062;1280;143423;-61
2022/11/13 08:07:17;;;;;;;24.30;15.10;;;;;;;5.92;100.00;101024.23;422378;1281;143283;-60
2022/11/13 08:17:22;;;;;;;24.30;16.40;;;;;;;5.95;100.00;101017.89;420905;1281;143000;-61
2022/11/13 08:27:28;;;;;;;27.30;15.00;;;;;;;5.87;100.00;101026.42;419742;1280;144976;-62
2022/11/13 08:37:35;;;;;;;21.40;14.40;;;;;;;5.82;100.00;101019.56;420422;1283;153545;-62
2022/11/13 08:47:40;;;;;;;23.60;14.80;;;;;;;5.92;100.00;101022.48;420533;1281;146650;-61
2022/11/13 08:57:46;;;;;;;22.80;15.40;;;;;;;6.06;100.00;101023.96;419710;1275;143565;-62
2022/11/13 09:07:55;;;;;;;26.40;16.80;;;;;;;6.08;100.00;101031.73;420055;1281;142357;-62
2022/11/13 09:18:02;;;;;;;24.40;16.60;;;;;;;6.09;99.89;101028.59;421460;1281;143264;-67
2022/11/13 09:28:10;;;;;;;29.60;16.90;;;;;;;5.97;99.23;101022.20;423845;1281;201247;-66
2022/11/13 09:38:16;;;;;;;24.20;16.80;;;;;;;5.91;99.37;101018.87;421868;1283;143013;-66
2022/11/13 09:48:30;;;;;;;27.70;15.70;;;;;;;5.94;98.98;101005.93;420910;1279;143150;-66
2022/11/13 09:58:48;;;;;;;18.90;12.10;;;;;;;5.83;98.92;100994.86;422065;1283;144455;-66
2022/11/13 10:09:00;;;;;;;23.40;13.50;;;;;;;5.86;98.93;100996.02;419292;1280;143440;-65
2022/11/13 10:19:14;;;;;;;19.90;13.40;;;;;;;5.97;99.07;100987.96;419865;1280;186850;-67
2022/11/13 10:29:21;;;;;;;22.40;13.90;;;;;;;5.94;98.14;100984.55;423076;1282;146372;-67
2022/11/13 10:39:27;;;;;;;21.90;13.30;;;;;;;5.84;97.82;100965.14;420436;1279;142656;-67
2022/11/13 10:49:33;;;;;;;24.50;14.80;;;;;;;5.84;97.54;100958.19;420890;1281;142782;-67
2022/11/13 10:59:42;;;;;;;28.10;18.50;;;;;;;5.88;97.46;100950.09;418803;1281;147053;-64
2022/11/13 11:09:50;;;;;;;26.20;17.50;;;;;;;5.91;97.26;100946.22;423268;1280;145893;-67
2022/11/13 11:20:00;;;;;;;21.60;17.00;;;;;;;5.90;97.12;100943.11;419036;1276;143110;-67
2022/11/13 11:30:13;;;;;;;24.50;17.10;;;;;;;6.00;97.17;100936.80;423687;1282;145587;-67
2022/11/13 11:40:26;;;;;;;31.50;21.80;;;;;;;5.98;96.50;100943.62;422613;1283;148109;-67
2022/11/13 11:50:39;;;;;;;34.50;23.20;;;;;;;5.98;96.68;100935.97;424370;1278;143096;-64
2022/11/13 12:00:50;;;;;;;38.90;24.30;;;;;;;5.98;96.38;100927.62;421300;1284;143506;-67
2022/11/13 12:11:02;;;;;;;40.10;26.30;;;;;;;6.00;96.20;100923.77;421288;1278;142749;-68
2022/11/13 12:21:20;;;;;;;31.20;22.40;;;;;;;6.05;96.08;100919.51;419379;1280;143036;-67
2022/11/13 12:31:40;;;;;;;34.80;23.50;;;;;;;6.00;95.84;100902.02;422750;1278;142924;-66
2022/11/13 12:41:54;;;;;;;32.70;23.30;;;;;;;5.93;95.80;100895.60;435030;1281;144708;-65
2022/11/13 12:52:01;;;;;;;35.50;22.90;;;;;;;5.94;95.88;100881.84;435633;1290;143805;-66
2022/11/13 13:02:39;;;;;;;30.40;20.70;;;;;;;5.97;95.67;100879.48;435582;1270;142219;-66
2022/11/13 13:13:01;;;;;;;28.50;19.60;;;;;;;5.96;95.65;100873.25;435143;1281;143194;-67
2022/11/13 13:23:10;;;;;;;25.90;18.40;;;;;;;5.85;95.43;100854.06;435756;1285;144431;-67
2022/11/13 13:33:24;;;;;;;26.70;19.00;;;;;;;5.79;95.42;100842.22;431222;1284;144080;-67
2022/11/13 13:43:47;;;;;;;25.90;17.80;;;;;;;5.76;95.36;100827.02;426948;1284;141726;-67
2022/11/13 13:53:54;;;;;;;26.60;18.10;;;;;;;5.68;95.46;100833.78;421119;1277;144520;-67
2022/11/13 14:04:12;;;;;;;30.10;20.50;;;;;;;5.58;95.66;100828.45;422155;1275;142617;-67
2022/11/13 14:14:20;;;;;;;27.20;19.10;;;;;;;5.49;95.69;100830.91;419945;1277;142211;-67
2022/11/13 14:24:32;;;;;;;28.00;18.90;;;;;;;5.31;95.61;100839.32;430096;1275;142715;-67
2022/11/13 14:34:43;;;;;;;26.60;18.40;;;;;;;5.20;95.85;100840.06;436114;1289;143183;-67
2022/11/13 14:44:49;;;;;;;29.00;21.00;;;;;;;5.19;96.04;100842.69;435017;1290;144011;-69
2022/11/13 14:55:04;;;;;;;28.00;19.70;;;;;;;5.15;96.01;100831.67;435635;1284;142526;-68
2022/11/13 15:05:21;;;;;;;26.20;19.20;;;;;;;5.07;96.16;100819.17;433361;1283;143098;-68
2022/11/13 15:15:30;;;;;;;27.40;19.50;;;;;;;5.00;95.97;100814.62;434396;1283;144947;-67
2022/11/13 15:25:36;;;;;;;30.80;22.30;;;;;;;4.96;95.96;100812.63;434803;1278;143811;-67
2022/11/13 15:35:42;;;;;;;34.40;21.70;;;;;;;4.92;96.09;100800.93;420162;1283;142330;-67
2022/11/13 15:45:48;;;;;;;29.00;21.00;;;;;;;4.88;96.15;100797.88;435967;1282;142509;-67
2022/11/13 15:55:54;;;;;;;31.20;22.10;;;;;;;4.86;96.27;100797.91;435836;1287;144651;-67
2022/11/13 16:06:00;;;;;;;32.50;23.00;;;;;;;4.89;96.39;100785.88;434777;1268;143404;-67
2022/11/13 16:16:08;;;;;;;36.20;23.70;;;;;;;4.96;96.53;100793.55;435974;1281;143652;-67
2022/11/13 16:26:16;;;;;;;35.70;23.00;;;;;;;4.99;96.47;100793.48;430722;1276;143132;-67
2022/11/13 16:36:23;;;;;;;32.20;22.80;;;;;;;5.02;96.50;100787.87;418346;1277;144355;-67
2022/11/13 16:46:31;;;;;;;36.10;25.80;;;;;;;5.00;96.42;100794.48;432426;1277;142298;-68
2022/11/13 16:56:37;;;;;;;37.00;25.70;;;;;;;5.04;96.60;100799.42;435267;1291;143122;-68
2022/11/13 17:06:43;;;;;;;41.00;29.20;;;;;;;5.12;96.46;100806.05;435932;1290;142128;-66
2022/11/13 17:16:49;;;;;;;36.20;24.20;;;;;;;5.16;96.40;100797.44;435820;1285;143316;-68
2022/11/13 17:26:55;;;;;;;38.90;24.70;;;;;;;5.22;96.41;100799.75;434762;1276;142883;-68
2022/11/13 17:37:01;;;;;;;34.50;24.90;;;;;;;5.24;96.27;100791.91;420396;1275;143549;-67
2022/11/13 17:47:08;;;;;;;35.40;23.00;;;;;;;5.18;96.16;100785.43;422314;1283;142293;-68
2022/11/13 17:57:14;;;;;;;34.10;23.20;;;;;;;5.14;96.33;100778.39;422703;1277;141540;-68
2022/11/13 18:07:19;;;;;;;38.30;25.10;;;;;;;5.13;96.41;100774.59;419476;1278;142352;-65
2022/11/13 18:17:25;;;;;;;38.30;25.20;;;;;;;5.13;96.32;100771.30;422807;1284;143723;-64
2022/11/13 18:27:31;;;;;;;37.30;25.40;;;;;;;5.12;96.43;100766.46;420784;1283;145532;-64
2022/11/13 18:37:37;;;;;;;41.40;26.20;;;;;;;5.16;96.47;100764.13;420036;1281;143536;-63
2022/11/13 18:47:43;;;;;;;34.60;24.50;;;;;;;5.17;96.49;100768.77;419394;1278;143272;-64
2022/11/13 18:57:49;;;;;;;41.70;26.70;;;;;;;5.18;96.53;100752.45;422450;1277;153919;-63
2022/11/13 19:07:55;;;;;;;40.50;26.40;;;;;;;5.17;96.52;100753.67;421545;1278;142397;-64
2022/11/13 19:18:00;;;;;;;41.20;23.70;;;;;;;5.17;96.59;100756.64;421644;1281;142055;-65
2022/11/13 19:28:07;;;;;;;41.80;24.30;;;;;;;5.18;96.65;100750.00;420572;1283;142125;-65
2022/11/13 19:38:12;;;;;;;40.80;24.90;;;;;;;5.17;96.64;100748.98;419516;1283;142792;-65
2022/11/13 19:48:18;;;;;;;38.00;22.90;;;;;;;5.17;96.70;100727.11;419557;1278;143182;-64
2022/11/13 19:58:24;;;;;;;33.00;22.10;;;;;;;5.16;96.82;100725.94;421050;1283;144798;-63
2022/11/13 20:08:30;;;;;;;32.20;22.10;;;;;;;5.16;96.91;100721.77;420973;1284;144174;-64
2022/11/13 20:18:37;;;;;;;39.50;25.60;;;;;;;5.13;97.03;100717.84;418874;1282;212105;-64
2022/11/13 20:28:42;;;;;;;34.00;25.10;;;;;;;5.12;97.14;100707.45;426074;1278;142638;-62
2022/11/13 20:38:52;;;;;;;39.10;25.10;;;;;;;5.06;97.14;100705.00;423118;1278;142757;-64
2022/11/13 20:48:58;;;;;;;38.60;25.40;;;;;;;4.96;97.41;100700.70;420231;1281;142342;-64
2022/11/13 20:59:04;;;;;;;36.70;24.80;;;;;;;4.87;97.69;100696.23;421002;1284;144171;-64
2022/11/13 21:09:10;;;;;;;37.90;23.30;;;;;;;4.83;97.86;100693.52;424005;1280;142640;-65
2022/11/13 21:19:16;;;;;;;34.80;23.60;;;;;;;4.86;97.96;100695.73;420627;1278;146095;-64
2022/11/13 21:29:21;;;;;;;47.00;27.20;;;;;;;4.86;98.16;100691.40;419149;1278;142760;-65
2022/11/13 21:39:27;;;;;;;37.30;24.00;;;;;;;4.82;98.32;100688.50;418430;1281;143331;-65
2022/11/13 21:49:33;;;;;;;40.00;27.40;;;;;;;4.86;98.62;100696.07;419258;1281;143062;-64
2022/11/13 21:59:39;;;;;;;43.60;27.40;;;;;;;4.92;98.57;100703.38;422707;1280;142761;-63
2022/11/13 22:09:45;;;;;;;37.80;24.90;;;;;;;4.98;98.58;100702.73;422540;1280;143432;-65
2022/11/13 22:19:51;;;;;;;45.40;28.20;;;;;;;5.04;98.58;100702.93;421092;1281;142958;-65
2022/11/13 22:29:56;;;;;;;44.30;28.00;;;;;;;5.08;98.51;100688.97;419575;1281;147134;-66
2022/11/13 22:40:02;;;;;;;37.60;25.30;;;;;;;5.11;98.60;100690.29;419318;1281;143195;-65
2022/11/13 22:50:09;;;;;;;41.30;27.80;;;;;;;5.13;98.61;100691.80;420295;1277;142700;-63
2022/11/13 23:00:16;;;;;;;45.40;27.10;;;;;;;5.13;98.53;100687.30;420969;1277;147243;-64
2022/11/13 23:10:24;;;;;;;39.10;23.80;;;;;;;5.13;98.62;100683.29;420714;1277;145795;-64
2022/11/13 23:20:30;;;;;;;38.80;24.90;;;;;;;5.13;98.64;100674.28;420045;1281;143699;-64
2022/11/13 23:30:36;;;;;;;43.50;27.80;;;;;;;5.11;98.59;100673.30;419303;1281;213340;-64
2022/11/13 23:40:42;;;;;;;45.40;27.50;;;;;;;5.08;98.60;100670.40;419513;1281;143340;-64
2022/11/13 23:50:48;;;;;;;50.70;30.00;;;;;;;5.06;98.78;100663.15;419239;1278;203913;-64
